Irma, Wisconsin
Current Conditions -  °F | °C
As of 6:55 PM on Saturday 22 Nov 2014 (Local Time) from KTKV Reporting Station
Haze Haze  
Wind Chill: 34°   Ceiling: 200
Heat Index: 34°   Visibility: 1.7mi
Dew Point: 33°   Wind: 0mph
Humidity: 95%   Direction: NA
Pressure: 29.69"   Gusts: NA
Location:  45.35°N, 89.67°W
Report Text: KTKV 230055Z AUTO 00000KT 1 3/4SM BR OVC002 01/00 A2969 RMK AO2 T00100003
Loading
Personal Weather Stations






























Interactive Weather Map New forecast layout! Learn more

10-Day Weather Forecast

Advertisements
Track Severe Weather on mobile